Time;durP1;ratioP1;P1;durP2;ratioP2;P2;SDS_P1;SDS_P2;PMS_P1;PMS_P2;Temp;Humidity;BMP_temperature;BMP_pressure;BME280_temperature;BME280_humidity;BME280_pressure;Samples;Min_cycle;Max_cycle;Signal;HPM_P1;HPM_P2
2024/01/17 00:00:49;;;;;;;6.30;3.50;;;;;;;;;;5131221;27;20050;-62
2024/01/17 00:03:15;;;;;;;6.57;3.50;;;;;;;;;;5124743;27;20635;-62
2024/01/17 00:05:41;;;;;;;5.05;3.85;;;;;;;;;;5123875;27;20043;-62
2024/01/17 00:08:09;;;;;;;9.10;3.60;;;;;;;;;;5123075;27;20172;-62
2024/01/17 00:10:35;;;;;;;6.05;3.92;;;;;;;;;;5124181;27;20035;-63
2024/01/17 00:13:02;;;;;;;6.07;4.40;;;;;;;;;;5131888;27;20039;-62
2024/01/17 00:15:28;;;;;;;6.57;3.85;;;;;;;;;;5127268;27;20031;-62
2024/01/17 00:17:54;;;;;;;8.50;4.47;;;;;;;;;;5120915;27;20542;-62
2024/01/17 00:20:20;;;;;;;8.23;4.93;;;;;;;;;;5124968;27;20121;-63
2024/01/17 00:22:47;;;;;;;6.95;4.68;;;;;;;;;;5122618;27;20056;-61
2024/01/17 00:25:13;;;;;;;6.40;4.57;;;;;;;;;;5123342;27;20059;-62
2024/01/17 00:27:39;;;;;;;8.45;4.15;;;;;;;;;;5124311;27;20060;-62
2024/01/17 00:30:07;;;;;;;7.68;4.70;;;;;;;;;;5129274;27;20051;-62
2024/01/17 00:32:34;;;;;;;7.78;3.78;;;;;;;;;;5129278;27;20039;-63
2024/01/17 00:35:00;;;;;;;6.05;4.30;;;;;;;;;;5111842;27;20046;-63
2024/01/17 00:37:26;;;;;;;9.95;4.53;;;;;;;;;;5127582;27;20043;-63
2024/01/17 00:39:53;;;;;;;8.10;5.68;;;;;;;;;;5129143;27;20035;-63
2024/01/17 00:42:19;;;;;;;7.22;4.38;;;;;;;;;;5128261;27;20043;-63
2024/01/17 00:44:45;;;;;;;7.35;4.68;;;;;;;;;;5128457;27;20067;-63
2024/01/17 00:47:12;;;;;;;6.75;5.22;;;;;;;;;;5130544;27;20464;-63
2024/01/17 00:49:41;;;;;;;7.82;5.50;;;;;;;;;;5117353;27;20554;-62
2024/01/17 00:52:09;;;;;;;7.78;3.97;;;;;;;;;;5129604;27;20356;-63
2024/01/17 00:54:35;;;;;;;9.90;5.22;;;;;;;;;;5128104;27;20062;-62
2024/01/17 00:57:01;;;;;;;10.23;5.00;;;;;;;;;;5128106;27;20436;-63
2024/01/17 00:59:27;;;;;;;6.82;4.65;;;;;;;;;;5130053;27;20035;-63
2024/01/17 01:01:53;;;;;;;9.18;5.20;;;;;;;;;;5123509;27;20039;-63
2024/01/17 01:04:19;;;;;;;9.50;4.68;;;;;;;;;;5128991;27;20043;-63
2024/01/17 01:06:46;;;;;;;7.00;4.38;;;;;;;;;;5122693;27;20320;-63
2024/01/17 01:09:12;;;;;;;11.70;4.80;;;;;;;;;;5127943;27;20379;-62
2024/01/17 01:11:38;;;;;;;6.53;5.45;;;;;;;;;;5108277;28;20035;-63
2024/01/17 01:14:05;;;;;;;8.48;5.15;;;;;;;;;;5128166;27;20054;-63
2024/01/17 01:16:31;;;;;;;10.32;5.55;;;;;;;;;;5123634;27;20148;-63
2024/01/17 01:18:57;;;;;;;9.20;5.82;;;;;;;;;;5128057;27;20431;-63
2024/01/17 01:21:23;;;;;;;10.68;5.00;;;;;;;;;;5125327;27;20464;-63
2024/01/17 01:23:49;;;;;;;17.38;6.18;;;;;;;;;;5128394;27;20070;-63
2024/01/17 01:26:15;;;;;;;7.45;4.95;;;;;;;;;;5127737;27;20047;-63
2024/01/17 01:28:41;;;;;;;9.65;5.30;;;;;;;;;;5130205;27;20159;-62
2024/01/17 01:31:07;;;;;;;7.63;4.95;;;;;;;;;;5122353;27;20156;-63
2024/01/17 01:33:35;;;;;;;7.43;5.75;;;;;;;;;;5124996;27;20426;-64
2024/01/17 01:36:01;;;;;;;8.35;5.60;;;;;;;;;;5109677;27;20051;-63
2024/01/17 01:38:27;;;;;;;6.43;5.38;;;;;;;;;;5104625;27;20567;-63
2024/01/17 01:40:54;;;;;;;12.10;6.22;;;;;;;;;;5127019;27;20039;-63
2024/01/17 01:43:20;;;;;;;14.52;5.82;;;;;;;;;;5122492;27;20047;-64
2024/01/17 01:46:04;;;;;;;10.85;5.07;;;;;;;;;;5128024;27;20496;-63
2024/01/17 01:48:31;;;;;;;8.18;5.57;;;;;;;;;;5126268;27;20403;-64
2024/01/17 01:50:58;;;;;;;8.93;5.90;;;;;;;;;;5129603;27;20476;-62
2024/01/17 01:53:25;;;;;;;10.25;5.45;;;;;;;;;;5124909;27;20035;-63
2024/01/17 01:55:53;;;;;;;7.95;5.13;;;;;;;;;;5108747;27;20642;-63
2024/01/17 01:58:20;;;;;;;6.82;5.88;;;;;;;;;;5129933;27;20411;-64
2024/01/17 02:00:46;;;;;;;7.65;6.15;;;;;;;;;;5125868;27;20047;-64
2024/01/17 02:03:14;;;;;;;15.35;6.55;;;;;;;;;;5123788;27;20471;-64
2024/01/17 02:05:41;;;;;;;10.05;5.78;;;;;;;;;;5108629;27;20450;-63
2024/01/17 02:08:07;;;;;;;12.50;5.95;;;;;;;;;;5123548;27;20080;-63
2024/01/17 02:10:33;;;;;;;7.85;5.10;;;;;;;;;;5126983;27;20121;-63
2024/01/17 02:13:00;;;;;;;8.00;5.65;;;;;;;;;;5126869;27;20031;-63
2024/01/17 02:15:29;;;;;;;15.45;6.80;;;;;;;;;;5127344;27;20590;-64
2024/01/17 02:17:55;;;;;;;8.23;5.63;;;;;;;;;;5128295;27;20403;-63
2024/01/17 02:20:21;;;;;;;9.43;5.55;;;;;;;;;;5123536;27;20201;-63
2024/01/17 02:22:47;;;;;;;8.90;6.00;;;;;;;;;;5122272;27;20112;-62
2024/01/17 02:25:13;;;;;;;9.77;6.85;;;;;;;;;;5128724;27;20550;-63
2024/01/17 02:27:40;;;;;;;9.82;6.22;;;;;;;;;;5125634;27;20092;-63
2024/01/17 02:30:07;;;;;;;11.75;5.50;;;;;;;;;;5128066;27;20051;-63
2024/01/17 02:32:33;;;;;;;8.25;6.30;;;;;;;;;;5129006;27;20143;-63
2024/01/17 02:35:00;;;;;;;11.57;5.85;;;;;;;;;;5119129;27;20444;-63
2024/01/17 02:37:26;;;;;;;11.70;5.85;;;;;;;;;;5109926;27;20079;-63
2024/01/17 02:39:52;;;;;;;9.70;5.68;;;;;;;;;;5122461;27;20035;-63
2024/01/17 02:42:18;;;;;;;8.80;5.88;;;;;;;;;;5124443;27;20049;-62
2024/01/17 02:44:44;;;;;;;9.98;6.35;;;;;;;;;;5128025;27;20492;-62
2024/01/17 02:47:10;;;;;;;7.93;5.82;;;;;;;;;;5082903;28;20396;-62
2024/01/17 02:49:36;;;;;;;8.38;5.40;;;;;;;;;;5118468;28;20218;-63
2024/01/17 02:52:02;;;;;;;10.35;6.00;;;;;;;;;;5122912;28;20091;-63
2024/01/17 02:54:29;;;;;;;10.52;5.80;;;;;;;;;;5126395;28;20142;-63
2024/01/17 02:56:55;;;;;;;8.52;5.65;;;;;;;;;;5127482;28;20126;-63
2024/01/17 02:59:21;;;;;;;8.90;6.00;;;;;;;;;;5128615;27;20512;-63
2024/01/17 03:01:48;;;;;;;8.73;5.80;;;;;;;;;;5128714;28;20134;-63
2024/01/17 03:04:14;;;;;;;9.68;6.20;;;;;;;;;;5109831;28;20043;-62
2024/01/17 03:06:40;;;;;;;13.93;7.47;;;;;;;;;;5127401;28;20062;-62
2024/01/17 03:09:06;;;;;;;11.05;5.95;;;;;;;;;;5127622;28;20031;-62
2024/01/17 03:11:32;;;;;;;8.90;6.45;;;;;;;;;;5126029;28;20172;-62
2024/01/17 03:13:58;;;;;;;9.60;6.10;;;;;;;;;;5125553;28;20072;-63
2024/01/17 03:16:24;;;;;;;9.95;6.22;;;;;;;;;;5122817;28;20028;-63
2024/01/17 03:18:50;;;;;;;11.15;6.10;;;;;;;;;;5124911;28;20498;-62
2024/01/17 03:21:17;;;;;;;8.32;6.55;;;;;;;;;;5123790;28;20035;-62
2024/01/17 03:23:43;;;;;;;10.40;7.38;;;;;;;;;;5127704;28;20515;-62
2024/01/17 03:26:09;;;;;;;9.63;5.78;;;;;;;;;;5119160;28;21037;-63
2024/01/17 03:28:36;;;;;;;9.43;6.60;;;;;;;;;;5118022;27;20055;-63
2024/01/17 03:31:02;;;;;;;11.40;6.93;;;;;;;;;;5123686;28;20540;-62
2024/01/17 03:33:28;;;;;;;11.48;6.93;;;;;;;;;;5126649;28;20046;-62
2024/01/17 03:35:54;;;;;;;10.23;6.88;;;;;;;;;;5120420;28;20087;-63
2024/01/17 03:38:21;;;;;;;9.15;6.72;;;;;;;;;;5127069;28;20046;-62
2024/01/17 03:40:47;;;;;;;15.43;7.95;;;;;;;;;;5120843;28;20075;-62
2024/01/17 03:43:13;;;;;;;11.45;6.82;;;;;;;;;;5121077;28;20070;-63
2024/01/17 03:45:39;;;;;;;11.02;7.60;;;;;;;;;;5128288;28;20539;-62
2024/01/17 03:48:06;;;;;;;12.90;7.78;;;;;;;;;;5125123;27;20507;-63
2024/01/17 03:50:33;;;;;;;10.70;7.53;;;;;;;;;;5131256;27;20054;-63
2024/01/17 03:53:00;;;;;;;10.65;7.15;;;;;;;;;;5131111;27;20082;-63
2024/01/17 03:55:26;;;;;;;10.23;7.25;;;;;;;;;;5130829;27;20047;-62
2024/01/17 03:57:52;;;;;;;12.00;8.23;;;;;;;;;;5130620;27;20467;-62
2024/01/17 04:00:19;;;;;;;12.88;7.13;;;;;;;;;;5130125;27;20156;-62
2024/01/17 04:02:45;;;;;;;12.40;7.38;;;;;;;;;;5129301;27;20527;-62
2024/01/17 04:05:12;;;;;;;11.25;7.57;;;;;;;;;;5130031;27;20087;-62
2024/01/17 04:07:38;;;;;;;14.15;7.93;;;;;;;;;;5119734;27;20035;-63
2024/01/17 04:10:05;;;;;;;14.52;8.73;;;;;;;;;;5129872;27;20114;-63
2024/01/17 04:12:31;;;;;;;9.85;8.10;;;;;;;;;;5131447;27;20087;-63
2024/01/17 04:14:57;;;;;;;12.02;8.13;;;;;;;;;;5130658;27;20483;-63
2024/01/17 04:17:23;;;;;;;13.80;7.78;;;;;;;;;;5130043;27;20046;-62
2024/01/17 04:19:49;;;;;;;12.73;8.57;;;;;;;;;;5128691;27;20035;-64
2024/01/17 04:22:16;;;;;;;15.00;8.32;;;;;;;;;;5131568;27;20076;-63
2024/01/17 04:24:42;;;;;;;14.23;7.60;;;;;;;;;;5130462;27;20054;-63
2024/01/17 04:27:08;;;;;;;13.00;7.60;;;;;;;;;;5129204;27;20700;-63
2024/01/17 04:29:35;;;;;;;13.13;8.00;;;;;;;;;;5129625;27;20099;-63
2024/01/17 04:32:02;;;;;;;13.75;8.02;;;;;;;;;;5128549;27;20129;-63
2024/01/17 04:34:28;;;;;;;11.05;7.32;;;;;;;;;;5130796;27;20122;-63
2024/01/17 04:36:54;;;;;;;11.52;7.60;;;;;;;;;;5130065;27;20047;-62
2024/01/17 04:39:20;;;;;;;14.88;8.75;;;;;;;;;;5128005;27;20604;-63
2024/01/17 04:41:47;;;;;;;16.25;8.32;;;;;;;;;;5131461;27;20027;-63
2024/01/17 04:44:13;;;;;;;13.85;9.45;;;;;;;;;;5128213;27;20051;-63
2024/01/17 04:46:39;;;;;;;11.98;7.47;;;;;;;;;;5130539;27;20541;-63
2024/01/17 04:49:06;;;;;;;9.60;7.20;;;;;;;;;;5115646;27;20266;-63
2024/01/17 04:51:32;;;;;;;12.95;7.72;;;;;;;;;;5126465;27;20065;-63
2024/01/17 04:53:58;;;;;;;17.10;9.00;;;;;;;;;;5125514;27;20041;-63
2024/01/17 04:56:24;;;;;;;11.20;8.48;;;;;;;;;;5108886;27;20067;-63
2024/01/17 04:58:51;;;;;;;10.45;7.65;;;;;;;;;;5128043;27;20128;-62
2024/01/17 05:01:17;;;;;;;10.55;7.30;;;;;;;;;;5118729;27;20061;-63
2024/01/17 05:03:43;;;;;;;13.00;7.32;;;;;;;;;;5110042;27;20046;-62
2024/01/17 05:06:09;;;;;;;12.68;8.57;;;;;;;;;;5129697;27;20133;-63
2024/01/17 05:08:35;;;;;;;13.30;8.13;;;;;;;;;;5128783;27;20472;-63
2024/01/17 05:11:02;;;;;;;10.90;7.43;;;;;;;;;;5128559;27;20050;-62
2024/01/17 05:13:28;;;;;;;15.13;8.05;;;;;;;;;;5128313;27;20396;-62
2024/01/17 05:15:54;;;;;;;12.15;8.07;;;;;;;;;;5126914;27;20305;-63
2024/01/17 05:18:20;;;;;;;12.52;8.25;;;;;;;;;;5118528;27;20066;-63
2024/01/17 05:20:47;;;;;;;10.63;8.13;;;;;;;;;;5106379;27;20044;-63
2024/01/17 05:23:13;;;;;;;10.85;7.90;;;;;;;;;;5124751;27;20054;-62
2024/01/17 05:25:39;;;;;;;12.15;7.97;;;;;;;;;;5118135;27;20604;-62
2024/01/17 05:28:06;;;;;;;9.27;7.68;;;;;;;;;;5119518;27;20039;-62
2024/01/17 05:30:32;;;;;;;12.45;7.53;;;;;;;;;;5116356;27;20096;-62
2024/01/17 05:32:58;;;;;;;11.98;8.13;;;;;;;;;;5120005;27;20039;-65
2024/01/17 05:35:27;;;;;;;10.18;8.20;;;;;;;;;;5119848;27;20039;-62
2024/01/17 05:37:53;;;;;;;12.90;7.88;;;;;;;;;;5118779;27;20054;-62
2024/01/17 05:40:19;;;;;;;12.30;8.20;;;;;;;;;;5123849;27;20043;-63
2024/01/17 05:42:46;;;;;;;13.38;8.40;;;;;;;;;;5124153;27;20125;-63
2024/01/17 05:45:12;;;;;;;14.18;8.23;;;;;;;;;;5122472;27;20515;-62
2024/01/17 05:47:39;;;;;;;10.18;7.55;;;;;;;;;;5117751;27;20039;-62
2024/01/17 05:50:09;;;;;;;13.23;9.18;;;;;;;;;;5121163;27;20058;-63
2024/01/17 05:52:36;;;;;;;15.70;8.95;;;;;;;;;;5123616;27;20464;-62
2024/01/17 05:55:03;;;;;;;14.77;8.90;;;;;;;;;;5121184;27;20422;-62
2024/01/17 05:57:29;;;;;;;12.85;7.85;;;;;;;;;;5119728;27;20499;-62
2024/01/17 05:59:55;;;;;;;13.88;8.43;;;;;;;;;;5122049;27;20043;-63
2024/01/17 06:02:21;;;;;;;14.95;9.15;;;;;;;;;;5071941;27;20060;-63
2024/01/17 06:04:47;;;;;;;13.35;9.23;;;;;;;;;;5114986;27;20092;-63
2024/01/17 06:07:14;;;;;;;11.65;8.48;;;;;;;;;;5116254;27;20517;-62
2024/01/17 06:09:43;;;;;;;13.18;9.23;;;;;;;;;;5117809;27;20042;-63
2024/01/17 06:12:10;;;;;;;13.52;8.00;;;;;;;;;;5123220;27;20130;-62
2024/01/17 06:14:36;;;;;;;12.88;9.02;;;;;;;;;;5120559;27;20084;-64
2024/01/17 06:17:02;;;;;;;19.50;9.80;;;;;;;;;;5118705;27;20123;-62
2024/01/17 06:19:28;;;;;;;13.13;9.25;;;;;;;;;;5111015;27;20039;-62
2024/01/17 06:21:54;;;;;;;10.75;8.88;;;;;;;;;;5119601;27;20047;-63
2024/01/17 06:24:21;;;;;;;24.50;8.63;;;;;;;;;;5124632;27;20043;-62
2024/01/17 06:26:47;;;;;;;15.75;9.65;;;;;;;;;;5120847;27;20492;-63
2024/01/17 06:29:13;;;;;;;11.10;8.85;;;;;;;;;;5121393;27;20054;-62
2024/01/17 06:31:39;;;;;;;13.35;8.60;;;;;;;;;;5114434;27;20045;-63
2024/01/17 06:34:06;;;;;;;18.05;8.68;;;;;;;;;;5119429;27;20042;-63
2024/01/17 06:36:32;;;;;;;11.75;7.50;;;;;;;;;;5124405;27;20047;-63
2024/01/17 06:38:59;;;;;;;15.45;9.25;;;;;;;;;;5122015;27;20039;-62
2024/01/17 06:41:25;;;;;;;11.95;8.60;;;;;;;;;;5121058;27;20597;-62
2024/01/17 06:43:51;;;;;;;11.15;9.20;;;;;;;;;;5118789;27;20047;-63
2024/01/17 06:46:17;;;;;;;11.65;8.18;;;;;;;;;;5122338;27;20137;-62
2024/01/17 06:48:44;;;;;;;11.75;8.68;;;;;;;;;;5118651;27;20321;-62
2024/01/17 06:51:10;;;;;;;12.70;9.05;;;;;;;;;;5121219;28;20031;-63
2024/01/17 06:53:36;;;;;;;14.65;10.77;;;;;;;;;;5115448;27;20054;-63
2024/01/17 06:56:02;;;;;;;12.25;9.10;;;;;;;;;;5118142;28;20049;-63
2024/01/17 06:58:28;;;;;;;14.93;9.35;;;;;;;;;;5123925;28;20067;-63
2024/01/17 07:00:54;;;;;;;12.23;9.15;;;;;;;;;;5124503;28;20042;-63
2024/01/17 07:03:21;;;;;;;14.20;9.63;;;;;;;;;;5124032;28;20064;-63
2024/01/17 07:05:47;;;;;;;19.85;11.02;;;;;;;;;;5113912;28;20053;-63
2024/01/17 07:08:13;;;;;;;17.08;9.63;;;;;;;;;;5110296;28;20051;-62
2024/01/17 07:10:40;;;;;;;13.55;8.68;;;;;;;;;;5119479;28;20387;-63
2024/01/17 07:13:07;;;;;;;13.85;9.70;;;;;;;;;;5110659;28;20513;-63
2024/01/17 07:15:33;;;;;;;13.55;10.13;;;;;;;;;;5117680;28;20038;-63
2024/01/17 07:17:59;;;;;;;17.13;9.60;;;;;;;;;;5099906;28;20508;-63
2024/01/17 07:20:25;;;;;;;10.48;8.05;;;;;;;;;;5119349;28;20039;-64
2024/01/17 07:22:51;;;;;;;13.05;9.65;;;;;;;;;;5116574;27;20175;-63
2024/01/17 07:25:18;;;;;;;12.48;8.45;;;;;;;;;;5125209;27;20043;-63
2024/01/17 07:27:45;;;;;;;14.63;9.23;;;;;;;;;;5109385;28;20059;-63
2024/01/17 07:30:12;;;;;;;12.38;9.10;;;;;;;;;;5124157;27;20074;-62
2024/01/17 07:32:38;;;;;;;13.30;9.02;;;;;;;;;;5119713;27;20176;-63
2024/01/17 07:35:05;;;;;;;12.68;8.75;;;;;;;;;;5127531;27;20507;-63
2024/01/17 07:37:31;;;;;;;11.20;9.23;;;;;;;;;;5077499;27;20772;-63
2024/01/17 07:39:57;;;;;;;12.88;8.73;;;;;;;;;;5109073;27;20042;-63
2024/01/17 07:42:23;;;;;;;12.82;8.57;;;;;;;;;;5121326;27;20047;-63
2024/01/17 07:44:50;;;;;;;17.77;9.82;;;;;;;;;;5125123;27;20174;-63
2024/01/17 07:47:16;;;;;;;16.58;8.75;;;;;;;;;;5125176;27;20035;-63
2024/01/17 07:49:43;;;;;;;13.73;9.10;;;;;;;;;;5096541;28;20122;-63
2024/01/17 07:52:09;;;;;;;17.35;10.13;;;;;;;;;;5123794;27;20160;-63
2024/01/17 07:54:36;;;;;;;17.60;8.00;;;;;;;;;;5126285;27;20030;-63
2024/01/17 07:57:03;;;;;;;11.20;8.65;;;;;;;;;;5128228;27;20528;-64
2024/01/17 07:59:29;;;;;;;14.20;9.02;;;;;;;;;;5125512;27;20050;-64
2024/01/17 08:01:55;;;;;;;13.25;9.15;;;;;;;;;;5108647;27;20051;-63
2024/01/17 08:04:22;;;;;;;11.90;8.88;;;;;;;;;;5123395;27;20035;-63
2024/01/17 08:06:48;;;;;;;12.70;9.68;;;;;;;;;;5123189;27;20040;-63
2024/01/17 08:09:21;;;;;;;12.80;9.00;;;;;;;;;;5125284;27;20039;-66
2024/01/17 08:11:48;;;;;;;17.60;8.52;;;;;;;;;;5122559;27;20400;-63
2024/01/17 08:14:15;;;;;;;12.00;8.43;;;;;;;;;;5124701;27;20464;-63
2024/01/17 08:16:41;;;;;;;15.50;9.52;;;;;;;;;;5120962;27;20046;-64
2024/01/17 08:19:07;;;;;;;15.07;8.88;;;;;;;;;;5123527;27;20510;-63
2024/01/17 08:21:33;;;;;;;21.67;9.10;;;;;;;;;;5121149;27;20057;-63
2024/01/17 08:23:59;;;;;;;14.43;9.45;;;;;;;;;;5109497;27;20256;-63
2024/01/17 08:26:25;;;;;;;14.48;8.68;;;;;;;;;;5127511;27;20075;-64
2024/01/17 08:28:52;;;;;;;11.20;9.43;;;;;;;;;;5123683;27;20058;-63
2024/01/17 08:31:18;;;;;;;12.90;8.75;;;;;;;;;;5126618;27;20051;-64
2024/01/17 08:33:44;;;;;;;9.88;7.13;;;;;;;;;;5119240;27;20039;-63
2024/01/17 08:36:12;;;;;;;12.05;8.27;;;;;;;;;;5126797;27;20118;-63
2024/01/17 08:38:38;;;;;;;11.23;9.07;;;;;;;;;;5126051;27;20518;-63
2024/01/17 08:41:04;;;;;;;10.07;8.68;;;;;;;;;;5120992;27;20124;-64
2024/01/17 08:43:30;;;;;;;10.93;8.18;;;;;;;;;;5127941;27;20039;-64
2024/01/17 08:45:56;;;;;;;13.00;8.82;;;;;;;;;;5103275;27;20146;-63
2024/01/17 08:48:22;;;;;;;15.40;8.55;;;;;;;;;;5107838;27;20122;-64
2024/01/17 08:50:48;;;;;;;13.30;8.95;;;;;;;;;;5123856;27;20047;-63
2024/01/17 08:53:15;;;;;;;17.25;9.30;;;;;;;;;;5128025;27;20460;-63
2024/01/17 08:55:41;;;;;;;12.23;7.90;;;;;;;;;;5123064;27;20070;-63
2024/01/17 08:58:08;;;;;;;11.00;8.38;;;;;;;;;;5128169;27;20051;-62
2024/01/17 09:00:34;;;;;;;12.88;9.35;;;;;;;;;;5084754;27;20490;-62
2024/01/17 09:03:00;;;;;;;11.23;8.25;;;;;;;;;;5121590;27;20050;-63
2024/01/17 09:05:26;;;;;;;11.98;8.18;;;;;;;;;;5105009;27;20050;-63
2024/01/17 09:07:53;;;;;;;10.48;8.02;;;;;;;;;;5125051;27;20027;-63
2024/01/17 09:10:20;;;;;;;13.32;8.30;;;;;;;;;;5121783;27;20119;-63
2024/01/17 09:12:46;;;;;;;12.55;8.85;;;;;;;;;;5120493;27;20118;-63
2024/01/17 09:15:12;;;;;;;11.60;8.07;;;;;;;;;;5121260;27;20099;-62
2024/01/17 09:17:38;;;;;;;13.93;8.80;;;;;;;;;;5116135;27;20051;-63
2024/01/17 09:20:06;;;;;;;11.70;8.85;;;;;;;;;;5095424;27;20265;-62
2024/01/17 09:22:32;;;;;;;15.30;8.40;;;;;;;;;;5121346;27;20535;-63
2024/01/17 09:25:01;;;;;;;12.27;9.13;;;;;;;;;;5120136;27;20123;-63
2024/01/17 09:27:28;;;;;;;11.65;8.63;;;;;;;;;;5121689;27;20051;-63
2024/01/17 09:29:54;;;;;;;18.83;8.77;;;;;;;;;;5122397;27;20039;-64
2024/01/17 09:32:20;;;;;;;18.30;9.32;;;;;;;;;;5099640;27;20091;-63
2024/01/17 09:34:47;;;;;;;12.15;7.72;;;;;;;;;;5126176;27;20039;-63
2024/01/17 09:37:16;;;;;;;11.90;8.60;;;;;;;;;;5106130;27;20100;-63
2024/01/17 09:39:43;;;;;;;11.10;8.20;;;;;;;;;;5120145;27;20448;-62
2024/01/17 09:42:10;;;;;;;13.00;7.93;;;;;;;;;;5121139;27;20517;-63
2024/01/17 09:44:37;;;;;;;13.70;9.32;;;;;;;;;;5120657;27;20351;-63
2024/01/17 09:47:04;;;;;;;12.73;9.13;;;;;;;;;;5105833;27;20055;-62
2024/01/17 09:49:32;;;;;;;12.63;8.55;;;;;;;;;;5119943;27;20160;-62
2024/01/17 09:52:04;;;;;;;11.80;8.27;;;;;;;;;;5124706;27;20061;-62
2024/01/17 09:54:33;;;;;;;11.40;8.27;;;;;;;;;;5121144;27;20035;-63
2024/01/17 09:56:59;;;;;;;12.07;8.63;;;;;;;;;;5124590;27;20057;-62
2024/01/17 09:59:28;;;;;;;11.00;7.90;;;;;;;;;;5106690;27;20443;-62
2024/01/17 10:01:57;;;;;;;13.52;8.77;;;;;;;;;;5124401;27;20146;-62
2024/01/17 10:04:25;;;;;;;10.95;8.25;;;;;;;;;;5123605;27;20043;-63
2024/01/17 10:06:52;;;;;;;13.27;7.93;;;;;;;;;;5122727;27;20046;-63
2024/01/17 10:09:23;;;;;;;16.38;7.95;;;;;;;;;;5123683;27;20046;-62
2024/01/17 10:11:50;;;;;;;13.13;7.47;;;;;;;;;;5123694;27;20062;-63
2024/01/17 10:14:17;;;;;;;13.05;7.63;;;;;;;;;;5122292;27;20058;-62
2024/01/17 10:16:43;;;;;;;10.45;8.43;;;;;;;;;;5121112;27;20046;-63
2024/01/17 10:19:09;;;;;;;9.27;7.70;;;;;;;;;;5119739;27;20203;-62
2024/01/17 10:21:35;;;;;;;11.05;7.78;;;;;;;;;;5118808;27;20038;-62
2024/01/17 10:24:06;;;;;;;13.73;8.02;;;;;;;;;;5125241;27;20047;-63
2024/01/17 10:26:33;;;;;;;11.65;7.88;;;;;;;;;;5121109;27;20059;-62
2024/01/17 10:28:59;;;;;;;11.20;8.38;;;;;;;;;;5121150;27;20047;-62
2024/01/17 10:31:25;;;;;;;12.82;8.15;;;;;;;;;;5123773;27;20435;-62
2024/01/17 10:33:53;;;;;;;10.60;7.85;;;;;;;;;;5121321;27;20507;-63
2024/01/17 10:36:19;;;;;;;11.30;7.05;;;;;;;;;;5119333;27;20051;-63
2024/01/17 10:38:51;;;;;;;11.00;7.25;;;;;;;;;;5124727;27;20046;-63
2024/01/17 10:41:17;;;;;;;11.02;7.32;;;;;;;;;;5120008;27;20181;-63
2024/01/17 10:43:53;;;;;;;9.73;6.53;;;;;;;;;;5118769;27;20138;-62
2024/01/17 10:46:20;;;;;;;12.43;7.13;;;;;;;;;;5120519;27;20443;-63
2024/01/17 10:48:46;;;;;;;12.85;8.25;;;;;;;;;;5115315;27;20068;-63
2024/01/17 10:51:18;;;;;;;12.05;7.47;;;;;;;;;;5125476;27;20291;-62
2024/01/17 10:53:47;;;;;;;9.43;6.45;;;;;;;;;;5122998;28;20039;-63
2024/01/17 10:56:14;;;;;;;10.57;6.90;;;;;;;;;;5120861;28;20377;-63
2024/01/17 10:58:41;;;;;;;11.32;6.22;;;;;;;;;;5125509;27;20650;-62
2024/01/17 11:01:11;;;;;;;9.73;6.85;;;;;;;;;;5130335;27;20117;-62
2024/01/17 11:03:39;;;;;;;11.18;5.97;;;;;;;;;;5125424;27;20039;-63
2024/01/17 11:06:06;;;;;;;11.13;7.03;;;;;;;;;;5125258;27;20126;-63
2024/01/17 11:08:32;;;;;;;12.30;7.38;;;;;;;;;;5123508;27;20042;-63
2024/01/17 11:10:59;;;;;;;10.57;6.82;;;;;;;;;;5128311;27;20043;-63
2024/01/17 11:13:25;;;;;;;11.52;8.07;;;;;;;;;;5125485;27;20047;-63
2024/01/17 11:15:53;;;;;;;8.18;6.20;;;;;;;;;;5126361;27;20077;-62
2024/01/17 11:18:20;;;;;;;13.02;6.47;;;;;;;;;;5122136;27;20150;-62
2024/01/17 11:20:46;;;;;;;8.90;6.93;;;;;;;;;;5123400;27;20070;-62
2024/01/17 11:23:21;;;;;;;9.05;7.10;;;;;;;;;;5128898;27;20372;-62
2024/01/17 11:25:58;;;;;;;10.80;7.05;;;;;;;;;;5122255;27;20138;-63
2024/01/17 11:28:29;;;;;;;10.52;7.90;;;;;;;;;;5111827;27;20412;-62
2024/01/17 11:30:59;;;;;;;10.82;5.78;;;;;;;;;;5123743;27;20047;-62
2024/01/17 11:33:30;;;;;;;13.20;6.60;;;;;;;;;;5117546;27;20598;-62
2024/01/17 11:35:56;;;;;;;9.35;6.88;;;;;;;;;;5119044;27;20118;-63
2024/01/17 11:38:26;;;;;;;8.25;6.40;;;;;;;;;;5120362;27;20118;-62
2024/01/17 11:40:56;;;;;;;9.15;6.20;;;;;;;;;;5127299;27;20110;-63
2024/01/17 11:43:22;;;;;;;10.10;6.75;;;;;;;;;;5105122;27;20310;-63
2024/01/17 11:45:53;;;;;;;10.88;6.03;;;;;;;;;;5119634;27;20492;-63
2024/01/17 11:48:25;;;;;;;8.50;6.20;;;;;;;;;;5121924;27;20385;-63
2024/01/17 11:50:55;;;;;;;10.45;6.20;;;;;;;;;;5116769;27;20060;-63
2024/01/17 11:53:24;;;;;;;8.88;6.20;;;;;;;;;;5116669;27;20479;-63
2024/01/17 11:55:51;;;;;;;9.43;6.03;;;;;;;;;;5116922;27;20039;-63
2024/01/17 11:58:17;;;;;;;10.02;6.53;;;;;;;;;;5103251;28;20065;-63
2024/01/17 12:00:44;;;;;;;11.68;6.22;;;;;;;;;;5120276;27;20493;-63
2024/01/17 12:03:10;;;;;;;10.10;6.70;;;;;;;;;;5126914;27;20137;-63
2024/01/17 12:05:36;;;;;;;10.20;5.82;;;;;;;;;;5115955;27;20066;-63
2024/01/17 12:08:05;;;;;;;10.73;6.80;;;;;;;;;;5117849;27;20126;-62
2024/01/17 12:10:32;;;;;;;12.27;6.13;;;;;;;;;;5106298;27;20050;-63
2024/01/17 12:12:58;;;;;;;8.73;5.78;;;;;;;;;;5122034;27;20078;-63
2024/01/17 12:15:24;;;;;;;8.73;5.93;;;;;;;;;;5124097;27;20039;-63
2024/01/17 12:17:51;;;;;;;13.55;7.05;;;;;;;;;;5116079;27;20503;-63
2024/01/17 12:20:17;;;;;;;6.90;4.95;;;;;;;;;;5116987;27;20115;-63
2024/01/17 12:22:50;;;;;;;9.93;6.20;;;;;;;;;;5092158;27;20050;-63
2024/01/17 12:25:18;;;;;;;8.05;6.25;;;;;;;;;;5107172;27;20038;-63
2024/01/17 12:27:52;;;;;;;10.18;6.85;;;;;;;;;;5117957;27;20062;-62
2024/01/17 12:30:19;;;;;;;8.77;5.25;;;;;;;;;;5122521;27;20050;-63
2024/01/17 12:32:46;;;;;;;7.90;5.97;;;;;;;;;;5119804;27;20086;-63
2024/01/17 12:35:14;;;;;;;9.30;6.47;;;;;;;;;;5123425;27;20480;-63
2024/01/17 12:37:40;;;;;;;9.00;6.68;;;;;;;;;;5120774;27;20053;-62
2024/01/17 12:40:08;;;;;;;12.88;6.18;;;;;;;;;;5105507;27;20116;-62
2024/01/17 12:42:35;;;;;;;10.93;6.30;;;;;;;;;;5100526;28;20044;-62
2024/01/17 12:45:01;;;;;;;13.05;6.22;;;;;;;;;;5117280;27;20035;-62
2024/01/17 12:47:27;;;;;;;8.80;5.78;;;;;;;;;;5117255;27;20118;-63
2024/01/17 12:49:54;;;;;;;7.20;5.03;;;;;;;;;;5116687;27;20046;-62
2024/01/17 12:52:20;;;;;;;7.38;5.32;;;;;;;;;;5120916;27;20475;-63
2024/01/17 12:54:46;;;;;;;10.95;5.95;;;;;;;;;;5124345;27;20071;-63
2024/01/17 12:57:13;;;;;;;6.38;4.80;;;;;;;;;;5122819;27;20047;-62
2024/01/17 12:59:39;;;;;;;9.65;5.90;;;;;;;;;;5121872;27;20762;-63
2024/01/17 13:02:06;;;;;;;11.65;6.15;;;;;;;;;;5120815;27;20162;-63
2024/01/17 13:04:32;;;;;;;11.65;6.03;;;;;;;;;;5106431;27;20104;-63
2024/01/17 13:06:59;;;;;;;8.75;6.38;;;;;;;;;;5117524;27;20457;-62
2024/01/17 13:09:28;;;;;;;7.35;5.78;;;;;;;;;;5124258;27;20146;-63
2024/01/17 13:11:55;;;;;;;8.60;5.28;;;;;;;;;;5123279;27;20119;-63
2024/01/17 13:14:22;;;;;;;8.77;4.88;;;;;;;;;;5124431;27;20134;-63
2024/01/17 13:16:48;;;;;;;8.35;6.22;;;;;;;;;;5115946;27;20040;-63
2024/01/17 13:19:15;;;;;;;8.93;5.03;;;;;;;;;;5123030;27;20035;-63
2024/01/17 13:21:42;;;;;;;6.88;5.50;;;;;;;;;;5118973;27;20047;-63
2024/01/17 13:24:08;;;;;;;8.07;5.43;;;;;;;;;;5122155;27;20115;-63
2024/01/17 13:26:38;;;;;;;8.45;5.57;;;;;;;;;;5118326;27;20515;-63
2024/01/17 13:29:04;;;;;;;10.15;6.65;;;;;;;;;;5125624;27;20051;-63
2024/01/17 13:31:31;;;;;;;6.82;4.95;;;;;;;;;;5087124;27;20487;-63
2024/01/17 13:33:58;;;;;;;8.48;6.03;;;;;;;;;;5124402;27;20499;-63
2024/01/17 13:36:27;;;;;;;8.25;5.30;;;;;;;;;;5121631;27;20092;-63
2024/01/17 13:38:53;;;;;;;6.93;4.70;;;;;;;;;;5124372;27;20471;-63
2024/01/17 13:41:21;;;;;;;6.80;5.03;;;;;;;;;;5117415;27;20523;-63
2024/01/17 13:43:48;;;;;;;8.88;5.68;;;;;;;;;;5120977;27;20524;-62
2024/01/17 13:46:14;;;;;;;7.78;5.50;;;;;;;;;;5124982;27;20034;-63
2024/01/17 13:48:40;;;;;;;8.77;5.50;;;;;;;;;;5121776;27;20146;-63
2024/01/17 13:51:09;;;;;;;7.63;5.47;;;;;;;;;;5123831;27;20074;-63
2024/01/17 13:53:41;;;;;;;10.90;6.22;;;;;;;;;;5122941;27;20543;-63
2024/01/17 13:56:09;;;;;;;6.28;5.10;;;;;;;;;;5120063;27;20408;-63
2024/01/17 13:58:37;;;;;;;13.30;5.82;;;;;;;;;;5118944;27;20152;-63
2024/01/17 14:01:04;;;;;;;8.27;6.18;;;;;;;;;;5124130;27;20464;-63
2024/01/17 14:03:31;;;;;;;10.27;4.97;;;;;;;;;;5125261;27;20259;-63
2024/01/17 14:05:57;;;;;;;7.90;5.82;;;;;;;;;;5119830;27;20074;-63
2024/01/17 14:08:24;;;;;;;9.05;5.57;;;;;;;;;;5124679;27;20035;-63
2024/01/17 14:10:50;;;;;;;7.68;5.07;;;;;;;;;;5114821;27;20111;-63
2024/01/17 14:13:17;;;;;;;7.07;5.15;;;;;;;;;;5106955;27;20138;-63
2024/01/17 14:15:43;;;;;;;8.95;5.38;;;;;;;;;;5120651;27;20043;-63
2024/01/17 14:18:10;;;;;;;7.68;5.63;;;;;;;;;;5119116;27;20042;-63
2024/01/17 14:20:38;;;;;;;11.27;6.47;;;;;;;;;;5118646;27;20051;-63
2024/01/17 14:23:04;;;;;;;7.88;5.20;;;;;;;;;;5116009;27;20126;-63
2024/01/17 14:25:34;;;;;;;9.15;5.32;;;;;;;;;;5122842;27;20047;-63
2024/01/17 14:28:00;;;;;;;7.95;5.20;;;;;;;;;;5122650;27;20605;-63
2024/01/17 14:30:29;;;;;;;10.05;5.90;;;;;;;;;;5121903;27;20043;-63